Time;durP1;ratioP1;P1;durP2;ratioP2;P2;SDS_P1;SDS_P2;PMS_P1;PMS_P2;Temp;Humidity;BMP_temperature;BMP_pressure;BME280_temperature;BME280_humidity;BME280_pressure;Samples;Min_cycle;Max_cycle;Signal;HPM_P1;HPM_P2
2023/08/19 00:01:03;;;;;;;49.20;38.65;;;20.80;99.90;;;;;;5052865;28;20425;-83
2023/08/19 00:03:30;;;;;;;45.10;35.78;;;21.00;99.90;;;;;;5035972;28;20430;-83
2023/08/19 00:05:55;;;;;;;46.53;36.47;;;20.80;99.90;;;;;;5042841;28;20413;-83
2023/08/19 00:08:21;;;;;;;46.00;36.38;;;20.80;99.90;;;;;;5039596;28;20775;-83
2023/08/19 00:10:47;;;;;;;47.70;37.13;;;20.90;99.90;;;;;;5057801;28;20489;-82
2023/08/19 00:13:13;;;;;;;45.40;36.43;;;20.80;99.90;;;;;;5052205;28;20417;-83
2023/08/19 00:15:38;;;;;;;48.30;37.50;;;20.50;99.90;;;;;;5047429;28;20496;-83
2023/08/19 00:18:04;;;;;;;49.75;37.08;;;20.60;99.90;;;;;;5032450;28;20403;-82
2023/08/19 00:20:32;;;;;;;46.90;36.45;;;20.50;99.90;;;;;;5036234;28;20456;-83
2023/08/19 00:22:58;;;;;;;43.70;35.10;;;20.60;99.90;;;;;;5040390;28;20401;-83
2023/08/19 00:25:25;;;;;;;46.53;37.00;;;20.80;99.90;;;;;;5057136;28;20441;-82
2023/08/19 00:27:52;;;;;;;44.85;36.70;;;20.70;99.90;;;;;;5042268;28;20412;-82
2023/08/19 00:30:18;;;;;;;43.87;36.50;;;20.50;99.90;;;;;;5051953;28;20423;-82
2023/08/19 00:32:46;;;;;;;44.78;35.67;;;20.80;99.90;;;;;;5041326;28;20449;-82
2023/08/19 00:35:12;;;;;;;43.75;35.35;;;20.60;99.90;;;;;;5015567;28;20429;-83
2023/08/19 00:37:38;;;;;;;41.67;34.92;;;20.60;99.90;;;;;;5029419;28;20455;-82
2023/08/19 00:40:04;;;;;;;45.30;36.10;;;20.60;99.90;;;;;;5056739;28;20403;-83
2023/08/19 00:42:30;;;;;;;43.78;35.10;;;20.70;99.90;;;;;;5056095;28;20417;-83
2023/08/19 00:44:56;;;;;;;45.55;35.28;;;20.60;99.90;;;;;;5040327;28;20756;-82
2023/08/19 00:47:23;;;;;;;42.58;35.13;;;20.70;99.90;;;;;;5018624;28;20413;-82
2023/08/19 00:49:49;;;;;;;41.45;34.53;;;20.60;99.90;;;;;;5037658;28;20497;-82
2023/08/19 00:52:16;;;;;;;43.78;34.72;;;20.90;99.90;;;;;;5046667;28;20467;-82
2023/08/19 00:54:42;;;;;;;45.17;34.45;;;20.70;99.90;;;;;;5029594;28;20452;-83
2023/08/19 00:57:07;;;;;;;42.72;34.60;;;20.60;99.90;;;;;;5049797;28;20420;-83
2023/08/19 00:59:33;;;;;;;45.93;36.13;;;20.60;99.90;;;;;;5034983;28;20420;-83
2023/08/19 01:01:59;;;;;;;44.10;34.40;;;20.60;99.90;;;;;;5045115;28;20431;-83
2023/08/19 01:04:24;;;;;;;42.70;33.83;;;20.50;99.90;;;;;;5030260;28;20768;-83
2023/08/19 01:07:04;;;;;;;43.97;34.67;;;20.80;99.90;;;;;;5051720;28;20491;-83
2023/08/19 01:10:10;;;;;;;43.23;34.57;;;20.70;99.90;;;;;;5027383;28;20423;-83
2023/08/19 01:12:42;;;;;;;42.03;34.65;;;20.30;99.90;;;;;;5003574;28;20516;-83
2023/08/19 01:15:17;;;;;;;44.25;34.53;;;20.50;99.90;;;;;;5044977;28;20556;-84
2023/08/19 01:17:45;;;;;;;45.65;35.15;;;20.60;99.90;;;;;;5066728;28;20914;-83
2023/08/19 01:20:11;;;;;;;44.90;35.15;;;20.60;99.90;;;;;;5030239;28;20405;-83
2023/08/19 01:22:56;;;;;;;46.43;35.57;;;20.40;99.90;;;;;;5052793;28;20491;-84
2023/08/19 01:25:22;;;;;;;41.45;34.13;;;19.50;99.90;;;;;;5048982;28;20422;-83
2023/08/19 01:27:48;;;;;;;43.30;35.05;;;20.50;99.90;;;;;;5022744;28;20423;-83
2023/08/19 01:30:14;;;;;;;42.75;35.28;;;20.40;99.90;;;;;;5036813;28;20521;-83
2023/08/19 01:32:41;;;;;;;43.75;35.17;;;20.40;99.90;;;;;;5037867;28;20428;-84
2023/08/19 01:35:08;;;;;;;44.37;35.47;;;20.30;99.90;;;;;;5051200;28;20408;-83
2023/08/19 01:37:58;;;;;;;49.60;38.38;;;20.60;99.90;;;;;;5046964;28;20408;-84
2023/08/19 01:40:26;;;;;;;47.13;35.50;;;20.30;99.90;;;;;;5036767;28;20834;-83
2023/08/19 01:42:54;;;;;;;45.33;36.60;;;20.30;99.90;;;;;;5022115;28;20506;-84
2023/08/19 01:45:21;;;;;;;47.05;36.17;;;20.60;99.90;;;;;;5040026;28;20404;-84
2023/08/19 01:47:52;;;;;;;44.30;34.58;;;20.50;99.90;;;;;;5056072;28;20403;-83
2023/08/19 01:50:18;;;;;;;46.08;36.47;;;20.40;99.90;;;;;;5056062;28;20424;-83
2023/08/19 01:52:44;;;;;;;44.15;35.33;;;20.20;99.90;;;;;;5056671;28;20895;-84
2023/08/19 01:55:10;;;;;;;44.83;35.53;;;20.60;99.90;;;;;;5055759;28;20465;-84
2023/08/19 01:57:35;;;;;;;44.90;35.63;;;20.50;99.90;;;;;;5043326;28;20412;-83
2023/08/19 02:00:03;;;;;;;44.30;34.17;;;21.20;99.90;;;;;;5052246;28;20500;-83
2023/08/19 02:02:29;;;;;;;45.15;35.72;;;20.30;99.90;;;;;;5040288;28;20399;-84
2023/08/19 02:04:55;;;;;;;43.90;34.17;;;20.30;99.90;;;;;;5055784;28;20509;-84
2023/08/19 02:07:20;;;;;;;42.90;33.90;;;20.30;99.90;;;;;;5028349;28;20415;-82
2023/08/19 02:09:46;;;;;;;43.40;34.05;;;20.30;99.90;;;;;;5056835;28;20904;-84
2023/08/19 02:12:12;;;;;;;42.70;34.63;;;20.10;99.90;;;;;;5034374;28;20824;-84
2023/08/19 02:14:38;;;;;;;39.38;32.38;;;20.50;99.90;;;;;;5057911;28;20431;-84
2023/08/19 02:17:03;;;;;;;42.20;33.97;;;20.30;99.90;;;;;;5059133;28;20423;-83
2023/08/19 02:19:29;;;;;;;40.13;32.93;;;20.20;99.90;;;;;;5026832;28;20405;-84
2023/08/19 02:21:55;;;;;;;43.83;33.27;;;20.20;99.90;;;;;;5010377;28;22450;-83
2023/08/19 02:24:21;;;;;;;37.28;31.35;;;20.10;99.90;;;;;;5039071;28;20405;-83
2023/08/19 02:26:46;;;;;;;43.53;31.93;;;20.10;99.90;;;;;;5054143;28;20424;-83
2023/08/19 02:29:12;;;;;;;39.87;32.40;;;20.30;99.90;;;;;;5022783;28;20456;-83
2023/08/19 02:31:38;;;;;;;40.90;32.72;;;20.20;99.90;;;;;;5042512;28;20411;-84
2023/08/19 02:34:04;;;;;;;37.55;31.15;;;18.50;99.90;;;;;;5059050;28;20456;-83
2023/08/19 02:36:31;;;;;;;38.63;32.03;;;20.30;99.90;;;;;;5042521;28;20428;-84
2023/08/19 02:38:57;;;;;;;39.33;32.70;;;20.10;99.90;;;;;;5060062;28;20899;-83
2023/08/19 02:41:23;;;;;;;39.70;32.60;;;20.20;99.90;;;;;;5052806;28;20419;-84
2023/08/19 02:43:50;;;;;;;38.47;31.73;;;20.00;99.90;;;;;;5024023;28;20413;-83
2023/08/19 02:46:15;;;;;;;36.55;30.88;;;20.30;99.90;;;;;;5020257;28;20404;-84
2023/08/19 02:48:41;;;;;;;35.35;29.35;;;20.10;99.90;;;;;;5057708;28;20755;-84
2023/08/19 02:51:07;;;;;;;38.30;30.90;;;20.40;99.90;;;;;;5051494;28;20421;-83
2023/08/19 02:53:33;;;;;;;37.63;30.60;;;20.20;99.90;;;;;;5036843;28;20423;-82
2023/08/19 02:55:59;;;;;;;34.67;30.33;;;20.50;99.90;;;;;;5038688;28;20405;-83
2023/08/19 02:58:26;;;;;;;33.47;29.58;;;20.40;99.90;;;;;;5046579;28;20919;-83
2023/08/19 03:00:52;;;;;;;35.67;30.00;;;20.30;99.90;;;;;;5058219;28;20434;-83
2023/08/19 03:03:17;;;;;;;35.65;29.55;;;20.30;99.90;;;;;;5052193;28;20419;-83
2023/08/19 03:05:43;;;;;;;37.13;29.10;;;20.20;99.90;;;;;;5056913;28;20508;-83
2023/08/19 03:08:10;;;;;;;34.63;30.02;;;20.40;99.90;;;;;;5069686;28;20405;-84
2023/08/19 03:10:38;;;;;;;32.97;28.53;;;20.10;99.90;;;;;;5046815;28;20428;-83
2023/08/19 03:13:04;;;;;;;34.00;29.55;;;20.50;99.90;;;;;;5035833;28;20427;-82
2023/08/19 03:15:31;;;;;;;34.38;28.00;;;20.20;99.90;;;;;;5055684;28;20419;-83
2023/08/19 03:17:57;;;;;;;30.98;27.42;;;20.10;99.90;;;;;;5049054;28;20477;-83
2023/08/19 03:20:23;;;;;;;32.97;27.35;;;20.30;99.90;;;;;;5058212;28;20408;-83
2023/08/19 03:22:49;;;;;;;32.15;27.52;;;20.20;99.90;;;;;;5041737;28;20404;-83
2023/08/19 03:25:15;;;;;;;31.05;27.75;;;20.20;99.90;;;;;;5032884;28;20496;-83
2023/08/19 03:27:41;;;;;;;30.23;26.88;;;20.20;99.90;;;;;;5039999;28;20410;-84
2023/08/19 03:30:07;;;;;;;29.85;26.13;;;20.20;99.90;;;;;;5042666;28;20419;-83
2023/08/19 03:32:33;;;;;;;34.25;27.23;;;20.30;99.90;;;;;;5005197;28;20491;-83
2023/08/19 03:34:59;;;;;;;30.67;26.88;;;20.40;99.90;;;;;;5047306;28;20455;-83
2023/08/19 03:37:25;;;;;;;30.17;26.73;;;20.30;99.90;;;;;;5042211;28;20398;-84
2023/08/19 03:39:51;;;;;;;29.45;26.20;;;20.30;99.90;;;;;;5037800;28;20850;-84
2023/08/19 03:42:17;;;;;;;31.17;25.98;;;20.40;99.90;;;;;;5056756;28;20400;-83
2023/08/19 03:44:43;;;;;;;29.88;25.90;;;20.80;99.90;;;;;;5033324;28;20436;-83
2023/08/19 03:47:13;;;;;;;30.48;25.83;;;20.80;99.90;;;;;;5028499;28;20409;-84
2023/08/19 03:49:39;;;;;;;30.20;26.07;;;20.40;99.90;;;;;;5058051;28;20407;-84
2023/08/19 03:52:06;;;;;;;31.92;26.35;;;20.40;99.90;;;;;;5053164;28;20420;-83
2023/08/19 03:54:32;;;;;;;30.00;26.33;;;20.40;99.90;;;;;;5057605;28;20934;-83
2023/08/19 03:56:58;;;;;;;30.40;25.92;;;20.60;99.90;;;;;;5051176;28;20780;-84
2023/08/19 03:59:23;;;;;;;31.67;25.70;;;20.40;99.90;;;;;;5045608;28;20497;-84
2023/08/19 04:01:49;;;;;;;30.20;24.87;;;20.30;99.90;;;;;;5036695;28;20406;-82
2023/08/19 04:04:15;;;;;;;28.25;25.10;;;20.40;99.90;;;;;;5035991;28;20419;-84
2023/08/19 04:06:40;;;;;;;28.67;25.67;;;20.40;99.90;;;;;;5033857;28;20495;-82
2023/08/19 04:09:07;;;;;;;33.80;25.33;;;20.40;99.90;;;;;;5038446;28;20496;-84
2023/08/19 04:11:33;;;;;;;27.92;24.65;;;20.30;99.90;;;;;;5057961;28;20478;-83
2023/08/19 04:13:59;;;;;;;31.73;25.55;;;20.30;99.90;;;;;;5049206;28;20449;-84
2023/08/19 04:16:25;;;;;;;27.65;24.10;;;20.60;99.90;;;;;;5022519;28;21008;-84
2023/08/19 04:18:51;;;;;;;27.35;23.10;;;20.10;99.90;;;;;;5038267;28;20409;-84
2023/08/19 04:21:17;;;;;;;26.63;23.60;;;20.30;99.90;;;;;;5044066;28;20416;-85
2023/08/19 04:23:43;;;;;;;26.27;22.88;;;20.30;99.90;;;;;;5041044;28;20395;-85
2023/08/19 04:26:09;;;;;;;25.58;22.58;;;20.40;99.90;;;;;;5073993;28;20438;-85
2023/08/19 04:28:35;;;;;;;26.80;22.77;;;20.30;99.90;;;;;;5023412;28;20812;-84
2023/08/19 04:31:05;;;;;;;25.63;22.35;;;20.40;99.90;;;;;;5042547;28;20473;-85
2023/08/19 04:33:32;;;;;;;25.60;21.85;;;20.50;99.90;;;;;;5024485;28;20765;-84
2023/08/19 04:35:58;;;;;;;24.77;22.13;;;20.40;99.90;;;;;;5055581;28;20423;-84
2023/08/19 04:38:24;;;;;;;25.75;21.58;;;20.40;99.90;;;;;;5037951;28;20427;-83
2023/08/19 04:40:50;;;;;;;25.38;21.23;;;20.40;99.90;;;;;;5033594;28;20516;-84
2023/08/19 04:43:20;;;;;;;24.38;20.33;;;20.80;99.90;;;;;;5039649;28;20419;-84
2023/08/19 04:45:46;;;;;;;24.48;20.45;;;20.80;99.90;;;;;;5044667;28;20423;-83
2023/08/19 04:48:12;;;;;;;24.67;20.10;;;20.40;99.90;;;;;;5037051;28;20430;-84
2023/08/19 04:50:37;;;;;;;23.67;19.77;;;20.50;99.90;;;;;;5035194;28;20830;-84
2023/08/19 04:53:03;;;;;;;21.50;19.20;;;20.70;99.90;;;;;;5040515;28;20430;-84
2023/08/19 04:55:30;;;;;;;21.27;18.27;;;20.90;99.90;;;;;;5057902;28;20413;-84
2023/08/19 04:57:56;;;;;;;21.67;18.92;;;20.70;99.90;;;;;;5014608;28;20837;-84
2023/08/19 05:00:22;;;;;;;20.48;18.33;;;20.80;99.90;;;;;;5040254;28;20460;-83
2023/08/19 05:02:48;;;;;;;19.70;17.70;;;20.90;99.90;;;;;;5028058;28;20476;-84
2023/08/19 05:05:14;;;;;;;20.70;17.80;;;20.70;99.90;;;;;;5045663;28;20505;-84
2023/08/19 05:07:40;;;;;;;23.45;17.98;;;21.00;99.90;;;;;;5071782;28;20956;-83
2023/08/19 05:10:06;;;;;;;19.10;16.80;;;20.90;99.90;;;;;;5033942;28;20421;-85
2023/08/19 05:12:32;;;;;;;19.70;16.80;;;20.90;99.90;;;;;;5041192;28;20446;-84
2023/08/19 05:14:58;;;;;;;18.30;16.13;;;21.00;99.90;;;;;;5040987;28;20797;-79
2023/08/19 05:17:24;;;;;;;18.70;16.70;;;21.00;99.90;;;;;;5042837;28;21697;-78
2023/08/19 05:19:49;;;;;;;18.33;16.40;;;20.10;99.90;;;;;;5053248;28;20418;-78
2023/08/19 05:22:15;;;;;;;19.13;15.70;;;21.10;99.90;;;;;;5049332;28;20474;-79
2023/08/19 05:24:41;;;;;;;18.15;15.77;;;21.00;99.90;;;;;;5047593;28;20423;-79
2023/08/19 05:27:07;;;;;;;19.65;15.73;;;20.90;99.90;;;;;;5036731;28;20419;-78
2023/08/19 05:29:33;;;;;;;18.45;16.00;;;21.00;99.90;;;;;;5050547;28;20418;-78
2023/08/19 05:31:58;;;;;;;18.37;15.07;;;21.10;99.90;;;;;;5078670;28;20836;-78
2023/08/19 05:34:25;;;;;;;18.13;14.88;;;21.10;99.90;;;;;;5059163;28;21001;-78
2023/08/19 05:36:51;;;;;;;18.57;14.80;;;21.20;99.90;;;;;;5035357;28;20856;-78
2023/08/19 05:39:17;;;;;;;19.08;14.75;;;21.00;99.90;;;;;;5061769;28;20419;-77
2023/08/19 05:41:43;;;;;;;18.27;14.77;;;21.10;99.90;;;;;;5021404;28;20424;-77
2023/08/19 05:44:08;;;;;;;19.93;15.40;;;21.20;99.90;;;;;;5063355;28;20425;-79
2023/08/19 05:46:34;;;;;;;16.85;14.65;;;21.40;99.90;;;;;;5044687;28;20446;-81
2023/08/19 05:49:00;;;;;;;16.70;14.40;;;21.50;99.90;;;;;;5045328;28;20801;-80
2023/08/19 05:51:27;;;;;;;20.00;14.80;;;21.30;99.90;;;;;;5031487;28;20425;-80
2023/08/19 05:54:00;;;;;;;16.03;13.30;;;21.30;99.90;;;;;;5036063;28;20978;-80
2023/08/19 05:56:27;;;;;;;18.52;13.77;;;21.20;99.90;;;;;;5067719;28;20415;-79
2023/08/19 05:58:53;;;;;;;15.43;13.40;;;21.60;99.90;;;;;;5027226;28;20774;-77
2023/08/19 06:01:19;;;;;;;14.73;13.05;;;21.50;99.90;;;;;;5030159;28;20842;-77
2023/08/19 06:03:44;;;;;;;17.83;13.73;;;21.50;99.90;;;;;;5041983;28;20460;-77
2023/08/19 06:06:10;;;;;;;16.02;12.60;;;21.50;99.90;;;;;;5022460;28;20472;-77
2023/08/19 06:08:36;;;;;;;15.77;12.10;;;21.50;99.90;;;;;;5078315;28;20992;-77
2023/08/19 06:11:07;;;;;;;13.68;12.25;;;21.70;99.90;;;;;;5050740;28;20423;-77
2023/08/19 06:13:37;;;;;;;16.90;11.60;;;21.60;99.90;;;;;;5041377;28;20438;-76
2023/08/19 06:16:04;;;;;;;15.40;12.35;;;22.00;99.90;;;;;;5056074;28;20467;-77
2023/08/19 06:18:30;;;;;;;17.10;12.13;;;21.80;99.90;;;;;;5038068;28;20429;-76
2023/08/19 06:20:57;;;;;;;16.20;12.13;;;22.10;99.90;;;;;;5044034;28;20461;-77
2023/08/19 06:23:23;;;;;;;16.00;12.00;;;20.50;99.90;;;;;;5043740;28;20510;-78
2023/08/19 06:25:51;;;;;;;15.50;12.00;;;21.80;99.90;;;;;;5057398;28;20943;-78
2023/08/19 06:28:18;;;;;;;16.63;12.93;;;21.80;99.90;;;;;;5037096;28;20492;-76
2023/08/19 06:30:45;;;;;;;17.43;12.50;;;21.90;99.90;;;;;;5077630;28;20421;-77
2023/08/19 06:33:12;;;;;;;14.93;11.60;;;21.80;99.90;;;;;;5061057;28;20972;-78
2023/08/19 06:35:38;;;;;;;15.68;12.00;;;21.60;99.90;;;;;;5058626;28;20504;-77
2023/08/19 06:38:11;;;;;;;16.45;11.48;;;21.70;99.90;;;;;;5077972;28;20407;-76
2023/08/19 06:40:40;;;;;;;14.75;10.63;;;21.80;99.90;;;;;;5033460;28;20427;-77
2023/08/19 06:43:07;;;;;;;14.90;11.25;;;21.60;99.90;;;;;;5041568;28;20429;-78
2023/08/19 06:45:34;;;;;;;14.43;10.48;;;21.50;99.90;;;;;;5076574;28;20417;-78
2023/08/19 06:48:02;;;;;;;14.23;10.20;;;21.80;99.90;;;;;;5046911;28;20464;-78
2023/08/19 06:50:28;;;;;;;13.40;10.75;;;21.80;99.90;;;;;;5057478;28;20450;-77
2023/08/19 06:52:54;;;;;;;13.85;10.38;;;21.80;99.90;;;;;;5051751;28;20415;-77
2023/08/19 06:55:20;;;;;;;13.95;10.45;;;21.80;99.90;;;;;;5077668;28;20421;-78
2023/08/19 06:58:02;;;;;;;12.15;9.75;;;22.00;99.90;;;;;;5040027;28;20453;-78
2023/08/19 07:00:28;;;;;;;12.98;10.13;;;22.00;99.90;;;;;;5050863;28;20483;-78
2023/08/19 07:02:55;;;;;;;14.38;10.77;;;22.00;99.90;;;;;;5034787;28;20423;-77
2023/08/19 07:05:22;;;;;;;14.88;11.13;;;22.00;99.90;;;;;;5057044;28;20427;-78
2023/08/19 07:07:50;;;;;;;19.95;11.55;;;22.10;99.90;;;;;;5046747;28;20938;-78
2023/08/19 07:10:18;;;;;;;16.25;11.57;;;22.30;99.90;;;;;;5055689;28;20754;-78
2023/08/19 07:12:44;;;;;;;14.03;11.70;;;22.30;99.90;;;;;;5066206;28;20837;-78
2023/08/19 07:15:14;;;;;;;14.90;11.15;;;22.60;99.90;;;;;;5039194;28;20423;-78
2023/08/19 07:17:47;;;;;;;13.55;12.02;;;21.00;99.90;;;;;;5050346;28;20445;-78
2023/08/19 07:20:20;;;;;;;17.13;11.68;;;22.30;99.90;;;;;;5032463;28;20511;-78
2023/08/19 07:22:48;;;;;;;15.23;11.43;;;22.60;99.90;;;;;;5041046;28;20421;-80
2023/08/19 07:25:14;;;;;;;15.40;11.15;;;22.40;99.90;;;;;;5043521;28;20420;-79
2023/08/19 07:27:47;;;;;;;14.98;11.68;;;22.70;99.90;;;;;;5055386;28;20438;-80
2023/08/19 07:30:19;;;;;;;16.93;11.60;;;22.40;99.90;;;;;;5052996;28;20416;-79
2023/08/19 07:32:52;;;;;;;13.18;11.10;;;22.40;99.90;;;;;;5036248;28;20414;-79
2023/08/19 07:35:21;;;;;;;14.90;10.90;;;22.80;99.90;;;;;;5042939;28;20413;-78
2023/08/19 07:37:53;;;;;;;14.80;11.20;;;22.60;99.90;;;;;;5031178;28;20415;-79
2023/08/19 07:40:25;;;;;;;13.52;11.13;;;22.60;99.90;;;;;;5031870;28;20471;-79
2023/08/19 07:42:52;;;;;;;13.20;10.68;;;22.60;99.90;;;;;;5035279;28;20421;-80
2023/08/19 07:45:20;;;;;;;13.43;10.45;;;22.70;99.90;;;;;;5008990;28;20768;-81
2023/08/19 07:47:48;;;;;;;12.05;10.63;;;22.50;99.90;;;;;;5053522;28;20419;-81
2023/08/19 07:50:15;;;;;;;11.85;10.25;;;22.70;99.90;;;;;;5056563;28;21104;-80
2023/08/19 07:52:43;;;;;;;13.77;10.88;;;22.80;99.90;;;;;;5034694;28;20551;-81
2023/08/19 07:55:10;;;;;;;15.07;10.90;;;23.00;99.90;;;;;;5038064;28;20409;-80
2023/08/19 07:57:36;;;;;;;12.18;10.50;;;22.60;99.90;;;;;;5037061;28;20451;-80
2023/08/19 08:00:02;;;;;;;14.20;10.65;;;22.70;99.90;;;;;;5067813;28;20449;-84
2023/08/19 08:02:28;;;;;;;12.70;10.32;;;22.80;99.90;;;;;;5056040;28;20427;-90
2023/08/19 08:04:54;;;;;;;12.47;9.63;;;23.10;99.90;;;;;;5051155;28;20915;-87
2023/08/19 08:07:23;;;;;;;13.57;9.33;;;23.00;99.90;;;;;;5043426;28;20423;-87
2023/08/19 08:09:49;;;;;;;14.27;9.60;;;22.90;99.90;;;;;;5040177;28;20762;-88
2023/08/19 08:12:15;;;;;;;12.00;9.15;;;22.50;99.90;;;;;;5057230;28;20457;-87
2023/08/19 08:14:44;;;;;;;14.10;9.30;;;23.20;99.90;;;;;;5008867;28;20407;-86
2023/08/19 08:17:10;;;;;;;12.13;9.00;;;23.00;99.90;;;;;;5034238;28;20506;-85
2023/08/19 08:19:36;;;;;;;13.18;8.50;;;23.30;99.90;;;;;;5021811;28;20451;-85
2023/08/19 08:22:04;;;;;;;10.63;8.50;;;23.10;99.90;;;;;;5057954;28;20464;-85
2023/08/19 08:24:30;;;;;;;10.63;8.57;;;23.20;99.90;;;;;;5066959;28;20468;-86
2023/08/19 08:26:56;;;;;;;10.80;7.95;;;23.30;99.90;;;;;;5058641;28;20396;-86
2023/08/19 08:29:22;;;;;;;13.32;7.90;;;23.40;99.90;;;;;;5040599;28;20496;-83
2023/08/19 08:31:50;;;;;;;9.77;8.17;;;23.30;99.90;;;;;;5021934;28;20428;-84
2023/08/19 08:34:16;;;;;;;11.10;7.90;;;23.50;99.90;;;;;;5038721;28;20409;-85
2023/08/19 08:36:42;;;;;;;10.73;7.88;;;23.50;99.90;;;;;;5025161;28;20409;-86
2023/08/19 08:39:08;;;;;;;9.55;7.20;;;23.50;99.90;;;;;;5055515;28;20409;-85
2023/08/19 08:41:39;;;;;;;9.93;7.47;;;23.70;99.90;;;;;;5059726;28;20407;-85
2023/08/19 08:44:08;;;;;;;11.38;8.00;;;23.90;99.90;;;;;;5051901;28;20482;-84
2023/08/19 08:46:35;;;;;;;10.70;7.85;;;24.80;99.90;;;;;;5061285;28;20419;-86
2023/08/19 08:49:05;;;;;;;10.75;7.78;;;24.60;99.90;;;;;;5040959;28;20569;-86
2023/08/19 08:51:31;;;;;;;9.13;7.40;;;24.60;99.90;;;;;;5074880;28;20428;-87
2023/08/19 08:53:59;;;;;;;10.95;7.70;;;24.80;99.90;;;;;;5074690;28;20420;-86
2023/08/19 08:56:25;;;;;;;20.13;8.57;;;24.90;99.90;;;;;;5056643;28;20450;-82
2023/08/19 08:58:51;;;;;;;11.82;7.95;;;24.80;99.90;;;;;;5035157;28;20420;-80
2023/08/19 09:01:19;;;;;;;11.25;7.65;;;25.20;99.90;;;;;;5050570;28;20431;-81
2023/08/19 09:03:46;;;;;;;10.02;7.65;;;25.30;99.90;;;;;;5031300;28;20514;-80
2023/08/19 09:06:16;;;;;;;10.25;7.18;;;25.20;99.90;;;;;;5040100;28;21043;-80
2023/08/19 09:08:52;;;;;;;12.55;7.53;;;25.60;99.90;;;;;;5040687;28;20419;-80
2023/08/19 09:11:39;;;;;;;9.55;7.72;;;25.30;99.90;;;;;;5025466;28;20433;-80
2023/08/19 09:14:14;;;;;;;12.75;7.75;;;25.40;99.90;;;;;;5032815;28;20520;-80
2023/08/19 09:16:40;;;;;;;11.05;8.23;;;25.30;99.90;;;;;;5018063;28;20417;-80
2023/08/19 09:19:06;;;;;;;10.82;7.72;;;25.30;99.90;;;;;;5016743;28;20421;-80
2023/08/19 09:21:32;;;;;;;10.83;8.00;;;24.10;99.90;;;;;;5012743;28;20464;-79
2023/08/19 09:24:01;;;;;;;10.77;7.43;;;25.50;99.90;;;;;;4970782;28;20414;-80
2023/08/19 09:26:26;;;;;;;11.68;8.70;;;25.60;99.90;;;;;;5002811;28;20485;-79
2023/08/19 09:28:57;;;;;;;9.98;8.00;;;25.50;99.90;;;;;;5008811;28;20488;-80
2023/08/19 09:31:24;;;;;;;14.50;8.30;;;25.70;99.90;;;;;;5004928;28;20424;-78
2023/08/19 09:33:52;;;;;;;10.65;8.07;;;26.10;99.90;;;;;;5015155;28;20405;-79
2023/08/19 09:36:24;;;;;;;11.45;7.80;;;26.10;99.90;;;;;;5037899;28;20401;-79
2023/08/19 09:38:54;;;;;;;13.85;8.77;;;26.20;99.90;;;;;;5019300;28;20457;-81
2023/08/19 09:41:27;;;;;;;12.27;8.23;;;26.00;99.90;;;;;;5002599;28;20437;-79
2023/08/19 09:43:54;;;;;;;11.63;8.68;;;26.00;99.90;;;;;;5011694;28;20464;-79
2023/08/19 09:46:20;;;;;;;13.00;8.93;;;25.70;99.90;;;;;;5008520;28;20417;-80
2023/08/19 09:48:56;;;;;;;10.82;8.60;;;25.90;99.90;;;;;;5026159;28;20436;-79
2023/08/19 09:51:26;;;;;;;11.00;8.60;;;26.10;99.90;;;;;;4990861;28;20827;-79
2023/08/19 09:53:53;;;;;;;12.55;8.50;;;26.10;99.90;;;;;;5010818;28;20764;-78
2023/08/19 09:56:23;;;;;;;11.52;8.23;;;26.00;99.90;;;;;;5004533;28;20923;-81
2023/08/19 09:58:50;;;;;;;10.98;8.93;;;25.80;99.90;;;;;;5030382;28;20405;-80
2023/08/19 10:01:17;;;;;;;11.95;8.70;;;25.70;99.90;;;;;;5013032;28;20457;-80
2023/08/19 10:03:43;;;;;;;11.63;8.43;;;25.80;99.90;;;;;;5027465;28;20500;-80
2023/08/19 10:06:10;;;;;;;11.70;8.43;;;25.60;99.90;;;;;;5013578;28;20570;-80
2023/08/19 10:08:42;;;;;;;12.45;8.75;;;25.70;99.90;;;;;;5016735;28;20516;-80
2023/08/19 10:11:09;;;;;;;14.82;9.07;;;25.60;99.90;;;;;;5022309;28;20451;-80
2023/08/19 10:13:36;;;;;;;12.35;8.48;;;25.60;99.90;;;;;;4990438;28;20436;-80
2023/08/19 10:16:04;;;;;;;10.52;8.40;;;25.40;99.90;;;;;;5034043;28;20419;-80
2023/08/19 10:18:35;;;;;;;15.00;8.88;;;25.60;99.90;;;;;;5031039;28;20428;-79
2023/08/19 10:21:09;;;;;;;12.38;9.00;;;25.40;99.90;;;;;;5048202;28;20475;-80
2023/08/19 10:23:39;;;;;;;12.40;8.75;;;25.30;99.90;;;;;;5035529;28;20888;-81
2023/08/19 10:26:06;;;;;;;10.45;8.35;;;25.30;99.90;;;;;;5040838;28;20412;-81
2023/08/19 10:28:33;;;;;;;10.95;9.10;;;25.40;99.90;;;;;;5025744;28;20431;-80
2023/08/19 10:31:08;;;;;;;13.23;9.00;;;25.50;99.90;;;;;;5018553;28;20418;-80
2023/08/19 10:33:46;;;;;;;12.48;9.40;;;25.70;99.90;;;;;;5027834;28;22469;-80
2023/08/19 10:36:16;;;;;;;13.00;8.88;;;25.80;99.90;;;;;;5053549;28;20453;-81
2023/08/19 10:38:47;;;;;;;11.43;8.50;;;25.90;99.90;;;;;;5015956;28;20512;-80
2023/08/19 10:41:29;;;;;;;13.02;8.85;;;25.80;99.90;;;;;;5036282;28;20530;-79
2023/08/19 10:44:09;;;;;;;14.23;9.27;;;25.70;99.90;;;;;;5038100;28;21001;-79
2023/08/19 10:46:43;;;;;;;11.77;9.23;;;25.80;99.90;;;;;;5050613;28;20420;-79
2023/08/19 10:49:12;;;;;;;13.70;10.00;;;25.70;99.90;;;;;;5022947;28;20451;-78
2023/08/19 10:51:53;;;;;;;14.15;9.80;;;24.10;99.90;;;;;;5051765;28;20429;-78
2023/08/19 10:54:27;;;;;;;13.93;9.93;;;25.30;99.90;;;;;;5043727;28;20451;-79
2023/08/19 10:57:26;;;;;;;14.07;10.05;;;25.50;99.90;;;;;;5029644;28;20418;-78
2023/08/19 11:00:05;;;;;;;12.80;9.65;;;25.50;99.90;;;;;;5051685;28;20443;-78
2023/08/19 11:02:32;;;;;;;13.68;10.38;;;25.70;99.90;;;;;;5031467;28;20427;-79
2023/08/19 11:04:58;;;;;;;13.98;10.73;;;25.90;99.90;;;;;;5035272;28;20831;-79
2023/08/19 11:07:26;;;;;;;14.20;10.20;;;25.90;99.90;;;;;;5035135;28;20430;-79
2023/08/19 11:09:54;;;;;;;15.90;10.68;;;26.60;99.90;;;;;;5038002;28;20800;-79
2023/08/19 11:12:22;;;;;;;13.70;11.13;;;25.90;99.90;;;;;;5066464;28;20431;-79
2023/08/19 11:14:49;;;;;;;14.38;11.88;;;26.80;99.90;;;;;;5032528;28;20913;-79
2023/08/19 11:17:16;;;;;;;15.57;12.30;;;26.70;99.90;;;;;;4995292;28;20467;-78
2023/08/19 11:19:42;;;;;;;16.13;12.63;;;27.20;99.90;;;;;;5013228;28;20417;-80
2023/08/19 11:22:13;;;;;;;14.93;12.32;;;27.40;99.90;;;;;;5014806;28;20431;-78
2023/08/19 11:24:38;;;;;;;16.27;13.07;;;27.50;99.90;;;;;;5011065;28;21222;-78
2023/08/19 11:27:04;;;;;;;14.90;11.87;;;27.90;99.90;;;;;;4993811;28;20514;-78
2023/08/19 11:29:30;;;;;;;15.52;12.15;;;28.20;99.90;;;;;;5011440;28;20435;-77
2023/08/19 11:31:57;;;;;;;15.02;12.88;;;28.30;99.90;;;;;;5043318;28;20436;-78
2023/08/19 11:34:28;;;;;;;14.55;12.73;;;28.20;99.90;;;;;;5027426;28;20481;-78
2023/08/19 11:36:53;;;;;;;15.98;13.13;;;28.40;99.90;;;;;;5023372;28;20905;-78
2023/08/19 11:39:19;;;;;;;17.02;13.20;;;28.60;99.90;;;;;;4974559;28;20487;-78
2023/08/19 11:41:47;;;;;;;18.83;15.60;;;28.50;99.90;;;;;;5042687;28;20961;-77
2023/08/19 11:44:13;;;;;;;19.58;15.82;;;28.30;99.90;;;;;;5030475;28;20431;-77
2023/08/19 11:46:40;;;;;;;17.52;14.80;;;28.00;99.90;;;;;;5028612;28;20455;-78
2023/08/19 11:49:08;;;;;;;21.20;16.00;;;28.10;99.90;;;;;;5011744;28;20431;-78
2023/08/19 11:51:40;;;;;;;19.20;16.33;;;28.00;99.90;;;;;;5030309;28;20437;-77
2023/08/19 11:54:10;;;;;;;22.40;17.63;;;27.70;99.90;;;;;;5028441;28;20410;-78
2023/08/19 11:56:46;;;;;;;24.33;20.73;;;27.70;99.90;;;;;;5028877;28;20539;-77
2023/08/19 11:59:11;;;;;;;24.23;21.20;;;27.30;99.90;;;;;;5028802;28;20421;-78
2023/08/19 12:01:37;;;;;;;28.70;25.57;;;27.20;99.90;;;;;;4993653;28;20502;-78
2023/08/19 12:04:10;;;;;;;29.17;26.05;;;27.30;99.90;;;;;;5044496;28;21035;-78
2023/08/19 12:06:35;;;;;;;32.42;27.55;;;27.10;99.90;;;;;;5027882;28;21316;-77
2023/08/19 12:09:01;;;;;;;37.20;28.38;;;26.90;99.90;;;;;;4995389;28;20425;-77
2023/08/19 12:11:27;;;;;;;35.70;27.20;;;26.40;99.90;;;;;;5007937;28;20433;-77
2023/08/19 12:13:53;;;;;;;32.55;25.20;;;26.30;99.90;;;;;;5032055;28;20518;-78
2023/08/19 12:16:19;;;;;;;31.00;24.75;;;25.90;99.90;;;;;;4975707;28;20771;-77
2023/08/19 12:18:45;;;;;;;30.38;24.35;;;26.50;99.90;;;;;;5019006;28;20416;-76
2023/08/19 12:21:11;;;;;;;25.75;20.92;;;25.60;99.90;;;;;;5011793;28;20421;-77
2023/08/19 12:23:36;;;;;;;25.58;19.85;;;25.60;99.90;;;;;;4982186;28;20979;-77
2023/08/19 12:26:02;;;;;;;22.80;17.80;;;25.90;99.90;;;;;;4997225;28;20418;-77
2023/08/19 12:28:30;;;;;;;18.83;14.38;;;25.70;99.90;;;;;;5011980;28;20451;-77
2023/08/19 12:30:56;;;;;;;15.70;11.93;;;25.40;99.90;;;;;;5012626;28;20433;-77